sensor_id;sensor_type;location;lat;lon;timestamp;P1;durP1;ratioP1;P2;durP2;ratioP2
76292;SDS011;65101;51.140;4.088;2022-11-20T00:01:22;10.77;;;8.60;;
76292;SDS011;65101;51.140;4.088;2022-11-20T00:03:51;12.60;;;9.25;;
76292;SDS011;65101;51.140;4.088;2022-11-20T00:06:18;11.75;;;9.38;;
76292;SDS011;65101;51.140;4.088;2022-11-20T00:08:44;13.05;;;9.45;;
76292;SDS011;65101;51.140;4.088;2022-11-20T00:11:12;13.18;;;9.95;;
76292;SDS011;65101;51.140;4.088;2022-11-20T00:13:39;13.23;;;9.77;;
76292;SDS011;65101;51.140;4.088;2022-11-20T00:16:06;13.43;;;9.30;;
76292;SDS011;65101;51.140;4.088;2022-11-20T00:18:33;14.65;;;9.98;;
76292;SDS011;65101;51.140;4.088;2022-11-20T00:21:00;13.02;;;9.57;;
76292;SDS011;65101;51.140;4.088;2022-11-20T00:23:46;13.07;;;10.15;;
76292;SDS011;65101;51.140;4.088;2022-11-20T00:26:13;11.75;;;9.52;;
76292;SDS011;65101;51.140;4.088;2022-11-20T00:28:40;13.13;;;8.77;;
76292;SDS011;65101;51.140;4.088;2022-11-20T00:31:14;13.52;;;9.52;;
76292;SDS011;65101;51.140;4.088;2022-11-20T00:33:41;12.18;;;9.65;;
76292;SDS011;65101;51.140;4.088;2022-11-20T00:36:09;15.35;;;8.82;;
76292;SDS011;65101;51.140;4.088;2022-11-20T00:38:39;12.10;;;9.50;;
76292;SDS011;65101;51.140;4.088;2022-11-20T00:41:05;14.23;;;9.93;;
76292;SDS011;65101;51.140;4.088;2022-11-20T00:43:33;14.50;;;9.75;;
76292;SDS011;65101;51.140;4.088;2022-11-20T00:48:25;13.30;;;9.80;;
76292;SDS011;65101;51.140;4.088;2022-11-20T00:50:51;12.82;;;8.90;;
76292;SDS011;65101;51.140;4.088;2022-11-20T00:53:17;11.73;;;8.55;;
76292;SDS011;65101;51.140;4.088;2022-11-20T00:55:51;10.05;;;8.07;;
76292;SDS011;65101;51.140;4.088;2022-11-20T00:58:18;12.10;;;9.18;;
76292;SDS011;65101;51.140;4.088;2022-11-20T01:00:44;11.15;;;8.98;;
76292;SDS011;65101;51.140;4.088;2022-11-20T01:03:09;10.98;;;9.07;;
76292;SDS011;65101;51.140;4.088;2022-11-20T01:05:35;14.93;;;9.25;;
76292;SDS011;65101;51.140;4.088;2022-11-20T01:08:01;11.40;;;9.30;;
76292;SDS011;65101;51.140;4.088;2022-11-20T01:10:26;12.38;;;8.73;;
76292;SDS011;65101;51.140;4.088;2022-11-20T01:12:52;14.43;;;9.38;;
76292;SDS011;65101;51.140;4.088;2022-11-20T01:15:38;12.63;;;8.77;;
76292;SDS011;65101;51.140;4.088;2022-11-20T01:18:03;11.05;;;9.15;;
76292;SDS011;65101;51.140;4.088;2022-11-20T01:20:30;11.07;;;8.88;;
76292;SDS011;65101;51.140;4.088;2022-11-20T01:25:25;12.18;;;9.20;;
76292;SDS011;65101;51.140;4.088;2022-11-20T01:27:51;12.00;;;8.93;;
76292;SDS011;65101;51.140;4.088;2022-11-20T01:30:16;11.93;;;9.00;;
76292;SDS011;65101;51.140;4.088;2022-11-20T01:32:42;13.90;;;9.20;;
76292;SDS011;65101;51.140;4.088;2022-11-20T01:35:08;13.00;;;9.98;;
76292;SDS011;65101;51.140;4.088;2022-11-20T01:37:34;11.38;;;9.38;;
76292;SDS011;65101;51.140;4.088;2022-11-20T01:40:00;11.15;;;8.18;;
76292;SDS011;65101;51.140;4.088;2022-11-20T01:42:26;10.45;;;8.88;;
76292;SDS011;65101;51.140;4.088;2022-11-20T01:48:17;13.15;;;9.40;;
76292;SDS011;65101;51.140;4.088;2022-11-20T01:50:44;11.27;;;8.55;;
76292;SDS011;65101;51.140;4.088;2022-11-20T01:53:11;12.82;;;8.73;;
76292;SDS011;65101;51.140;4.088;2022-11-20T01:55:41;10.05;;;8.40;;
76292;SDS011;65101;51.140;4.088;2022-11-20T01:58:18;12.85;;;8.80;;
76292;SDS011;65101;51.140;4.088;2022-11-20T02:00:47;12.45;;;8.73;;
76292;SDS011;65101;51.140;4.088;2022-11-20T02:03:15;11.15;;;8.32;;
76292;SDS011;65101;51.140;4.088;2022-11-20T02:08:42;10.85;;;8.98;;
76292;SDS011;65101;51.140;4.088;2022-11-20T02:11:07;10.15;;;8.02;;
76292;SDS011;65101;51.140;4.088;2022-11-20T02:13:33;10.18;;;8.82;;
76292;SDS011;65101;51.140;4.088;2022-11-20T02:16:13;12.48;;;8.63;;
76292;SDS011;65101;51.140;4.088;2022-11-20T02:18:45;13.23;;;8.45;;
76292;SDS011;65101;51.140;4.088;2022-11-20T02:21:18;10.15;;;8.23;;
76292;SDS011;65101;51.140;4.088;2022-11-20T02:24:07;12.85;;;8.90;;
76292;SDS011;65101;51.140;4.088;2022-11-20T02:26:53;10.73;;;8.30;;
76292;SDS011;65101;51.140;4.088;2022-11-20T02:29:36;10.75;;;8.98;;
76292;SDS011;65101;51.140;4.088;2022-11-20T02:32:06;11.50;;;8.88;;
76292;SDS011;65101;51.140;4.088;2022-11-20T02:34:42;11.30;;;9.68;;
76292;SDS011;65101;51.140;4.088;2022-11-20T02:37:07;10.75;;;8.25;;
76292;SDS011;65101;51.140;4.088;2022-11-20T02:39:33;13.73;;;9.55;;
76292;SDS011;65101;51.140;4.088;2022-11-20T02:42:00;13.00;;;8.20;;
76292;SDS011;65101;51.140;4.088;2022-11-20T02:44:27;9.88;;;8.45;;
76292;SDS011;65101;51.140;4.088;2022-11-20T02:46:52;12.02;;;9.07;;
76292;SDS011;65101;51.140;4.088;2022-11-20T02:49:18;10.73;;;7.93;;
76292;SDS011;65101;51.140;4.088;2022-11-20T02:51:44;11.98;;;8.20;;
76292;SDS011;65101;51.140;4.088;2022-11-20T02:54:09;11.57;;;8.55;;
76292;SDS011;65101;51.140;4.088;2022-11-20T02:56:37;10.07;;;8.32;;
76292;SDS011;65101;51.140;4.088;2022-11-20T02:59:03;11.43;;;8.57;;
76292;SDS011;65101;51.140;4.088;2022-11-20T03:01:29;12.15;;;9.52;;
76292;SDS011;65101;51.140;4.088;2022-11-20T03:03:55;9.40;;;8.20;;
76292;SDS011;65101;51.140;4.088;2022-11-20T03:06:21;12.13;;;9.50;;
76292;SDS011;65101;51.140;4.088;2022-11-20T03:08:47;11.88;;;9.70;;
76292;SDS011;65101;51.140;4.088;2022-11-20T03:11:13;11.63;;;9.32;;
76292;SDS011;65101;51.140;4.088;2022-11-20T03:13:39;12.93;;;9.20;;
76292;SDS011;65101;51.140;4.088;2022-11-20T03:16:07;10.65;;;9.10;;
76292;SDS011;65101;51.140;4.088;2022-11-20T03:18:35;10.95;;;9.13;;
76292;SDS011;65101;51.140;4.088;2022-11-20T03:21:00;11.48;;;8.43;;
76292;SDS011;65101;51.140;4.088;2022-11-20T03:23:28;11.98;;;9.90;;
76292;SDS011;65101;51.140;4.088;2022-11-20T03:25:56;10.90;;;9.15;;
76292;SDS011;65101;51.140;4.088;2022-11-20T03:28:31;10.40;;;9.18;;
76292;SDS011;65101;51.140;4.088;2022-11-20T03:30:57;12.88;;;9.60;;
76292;SDS011;65101;51.140;4.088;2022-11-20T03:33:22;11.60;;;9.25;;
76292;SDS011;65101;51.140;4.088;2022-11-20T03:35:48;14.10;;;9.35;;
76292;SDS011;65101;51.140;4.088;2022-11-20T03:38:14;12.02;;;9.75;;
76292;SDS011;65101;51.140;4.088;2022-11-20T03:40:39;11.93;;;9.02;;
76292;SDS011;65101;51.140;4.088;2022-11-20T03:43:05;12.52;;;10.00;;
76292;SDS011;65101;51.140;4.088;2022-11-20T03:45:30;10.27;;;8.90;;
76292;SDS011;65101;51.140;4.088;2022-11-20T03:47:56;12.20;;;9.57;;
76292;SDS011;65101;51.140;4.088;2022-11-20T03:50:22;11.38;;;9.25;;
76292;SDS011;65101;51.140;4.088;2022-11-20T03:52:47;12.85;;;10.25;;
76292;SDS011;65101;51.140;4.088;2022-11-20T03:55:13;11.40;;;9.05;;
76292;SDS011;65101;51.140;4.088;2022-11-20T03:57:39;11.32;;;9.50;;
76292;SDS011;65101;51.140;4.088;2022-11-20T04:00:05;11.27;;;9.20;;
76292;SDS011;65101;51.140;4.088;2022-11-20T04:02:31;11.23;;;8.60;;
76292;SDS011;65101;51.140;4.088;2022-11-20T04:04:56;11.45;;;9.23;;
76292;SDS011;65101;51.140;4.088;2022-11-20T04:07:22;12.75;;;8.70;;
76292;SDS011;65101;51.140;4.088;2022-11-20T04:09:48;14.90;;;10.80;;
76292;SDS011;65101;51.140;4.088;2022-11-20T04:12:13;11.32;;;9.70;;
76292;SDS011;65101;51.140;4.088;2022-11-20T04:14:39;11.45;;;9.38;;
76292;SDS011;65101;51.140;4.088;2022-11-20T04:17:05;12.50;;;9.43;;
76292;SDS011;65101;51.140;4.088;2022-11-20T04:19:31;12.20;;;9.75;;
76292;SDS011;65101;51.140;4.088;2022-11-20T04:21:56;12.93;;;9.90;;
76292;SDS011;65101;51.140;4.088;2022-11-20T04:24:22;10.18;;;8.32;;
76292;SDS011;65101;51.140;4.088;2022-11-20T04:26:48;11.40;;;9.43;;
76292;SDS011;65101;51.140;4.088;2022-11-20T04:29:13;11.20;;;8.85;;
76292;SDS011;65101;51.140;4.088;2022-11-20T04:31:39;11.88;;;9.63;;
76292;SDS011;65101;51.140;4.088;2022-11-20T04:34:05;13.60;;;9.93;;
76292;SDS011;65101;51.140;4.088;2022-11-20T04:36:32;11.25;;;9.63;;
76292;SDS011;65101;51.140;4.088;2022-11-20T04:38:59;11.27;;;8.95;;
76292;SDS011;65101;51.140;4.088;2022-11-20T04:41:28;12.70;;;9.60;;
76292;SDS011;65101;51.140;4.088;2022-11-20T04:43:57;11.77;;;8.38;;
76292;SDS011;65101;51.140;4.088;2022-11-20T04:46:27;11.40;;;9.75;;
76292;SDS011;65101;51.140;4.088;2022-11-20T04:48:52;10.80;;;8.98;;
76292;SDS011;65101;51.140;4.088;2022-11-20T04:51:18;10.77;;;9.27;;
76292;SDS011;65101;51.140;4.088;2022-11-20T04:53:44;11.32;;;9.00;;
76292;SDS011;65101;51.140;4.088;2022-11-20T04:56:10;11.80;;;9.35;;
76292;SDS011;65101;51.140;4.088;2022-11-20T04:58:37;11.50;;;8.90;;
76292;SDS011;65101;51.140;4.088;2022-11-20T05:01:03;12.02;;;9.80;;
76292;SDS011;65101;51.140;4.088;2022-11-20T05:03:31;11.07;;;9.32;;
76292;SDS011;65101;51.140;4.088;2022-11-20T05:05:59;12.40;;;9.70;;
76292;SDS011;65101;51.140;4.088;2022-11-20T05:08:26;11.80;;;9.57;;
76292;SDS011;65101;51.140;4.088;2022-11-20T05:10:52;12.63;;;9.50;;
76292;SDS011;65101;51.140;4.088;2022-11-20T05:13:18;12.93;;;9.10;;
76292;SDS011;65101;51.140;4.088;2022-11-20T05:15:43;11.43;;;9.05;;
76292;SDS011;65101;51.140;4.088;2022-11-20T05:18:09;14.38;;;10.43;;
76292;SDS011;65101;51.140;4.088;2022-11-20T05:20:34;14.20;;;10.68;;
76292;SDS011;65101;51.140;4.088;2022-11-20T05:23:01;11.75;;;9.73;;
76292;SDS011;65101;51.140;4.088;2022-11-20T05:25:27;11.68;;;9.98;;
76292;SDS011;65101;51.140;4.088;2022-11-20T05:27:53;11.50;;;9.25;;
76292;SDS011;65101;51.140;4.088;2022-11-20T05:30:18;11.38;;;9.20;;
76292;SDS011;65101;51.140;4.088;2022-11-20T05:32:44;10.45;;;9.13;;
76292;SDS011;65101;51.140;4.088;2022-11-20T05:35:10;12.88;;;8.98;;
76292;SDS011;65101;51.140;4.088;2022-11-20T05:37:35;11.63;;;8.23;;
76292;SDS011;65101;51.140;4.088;2022-11-20T05:40:01;12.93;;;10.48;;
76292;SDS011;65101;51.140;4.088;2022-11-20T05:42:30;10.70;;;9.07;;
76292;SDS011;65101;51.140;4.088;2022-11-20T05:45:00;12.93;;;9.95;;
76292;SDS011;65101;51.140;4.088;2022-11-20T05:47:27;10.50;;;9.07;;
76292;SDS011;65101;51.140;4.088;2022-11-20T05:49:56;12.27;;;9.73;;
76292;SDS011;65101;51.140;4.088;2022-11-20T05:52:21;10.65;;;8.43;;
76292;SDS011;65101;51.140;4.088;2022-11-20T05:54:47;9.82;;;8.73;;
76292;SDS011;65101;51.140;4.088;2022-11-20T05:57:13;11.40;;;9.45;;
76292;SDS011;65101;51.140;4.088;2022-11-20T05:59:38;11.00;;;9.43;;
76292;SDS011;65101;51.140;4.088;2022-11-20T06:02:04;11.32;;;9.73;;
76292;SDS011;65101;51.140;4.088;2022-11-20T06:04:30;11.45;;;8.90;;
76292;SDS011;65101;51.140;4.088;2022-11-20T06:06:56;13.02;;;9.93;;
76292;SDS011;65101;51.140;4.088;2022-11-20T06:09:21;10.48;;;9.02;;
76292;SDS011;65101;51.140;4.088;2022-11-20T06:11:47;12.00;;;9.43;;
76292;SDS011;65101;51.140;4.088;2022-11-20T06:14:12;10.95;;;9.07;;
76292;SDS011;65101;51.140;4.088;2022-11-20T06:16:38;9.68;;;8.50;;
76292;SDS011;65101;51.140;4.088;2022-11-20T06:19:04;11.50;;;9.52;;
76292;SDS011;65101;51.140;4.088;2022-11-20T06:21:29;10.38;;;8.88;;
76292;SDS011;65101;51.140;4.088;2022-11-20T06:23:55;10.27;;;8.57;;
76292;SDS011;65101;51.140;4.088;2022-11-20T06:26:22;10.38;;;8.75;;
76292;SDS011;65101;51.140;4.088;2022-11-20T06:28:49;11.57;;;9.00;;
76292;SDS011;65101;51.140;4.088;2022-11-20T06:31:17;10.60;;;8.73;;
76292;SDS011;65101;51.140;4.088;2022-11-20T06:33:44;10.52;;;8.68;;
76292;SDS011;65101;51.140;4.088;2022-11-20T06:36:11;11.38;;;9.23;;
76292;SDS011;65101;51.140;4.088;2022-11-20T06:38:38;10.32;;;8.57;;
76292;SDS011;65101;51.140;4.088;2022-11-20T06:41:05;10.73;;;8.85;;
76292;SDS011;65101;51.140;4.088;2022-11-20T06:43:32;12.65;;;10.27;;
76292;SDS011;65101;51.140;4.088;2022-11-20T06:45:58;11.70;;;9.52;;
76292;SDS011;65101;51.140;4.088;2022-11-20T06:48:25;11.23;;;8.98;;
76292;SDS011;65101;51.140;4.088;2022-11-20T06:50:52;10.60;;;9.13;;
76292;SDS011;65101;51.140;4.088;2022-11-20T06:53:17;12.20;;;9.63;;
76292;SDS011;65101;51.140;4.088;2022-11-20T06:55:44;12.13;;;8.95;;
76292;SDS011;65101;51.140;4.088;2022-11-20T06:58:10;12.38;;;9.90;;
76292;SDS011;65101;51.140;4.088;2022-11-20T07:00:37;10.98;;;9.43;;
76292;SDS011;65101;51.140;4.088;2022-11-20T07:03:03;11.35;;;9.60;;
76292;SDS011;65101;51.140;4.088;2022-11-20T07:05:29;11.07;;;9.23;;
76292;SDS011;65101;51.140;4.088;2022-11-20T07:07:55;12.95;;;10.20;;
76292;SDS011;65101;51.140;4.088;2022-11-20T07:10:22;10.18;;;9.05;;
76292;SDS011;65101;51.140;4.088;2022-11-20T07:12:52;11.98;;;9.73;;
76292;SDS011;65101;51.140;4.088;2022-11-20T07:15:19;10.98;;;9.23;;
76292;SDS011;65101;51.140;4.088;2022-11-20T07:17:46;12.70;;;9.32;;
76292;SDS011;65101;51.140;4.088;2022-11-20T07:20:12;11.65;;;9.52;;
76292;SDS011;65101;51.140;4.088;2022-11-20T07:22:38;13.85;;;9.98;;
76292;SDS011;65101;51.140;4.088;2022-11-20T07:25:04;12.88;;;9.93;;
76292;SDS011;65101;51.140;4.088;2022-11-20T07:27:30;12.73;;;9.95;;
76292;SDS011;65101;51.140;4.088;2022-11-20T07:29:56;13.93;;;10.52;;
76292;SDS011;65101;51.140;4.088;2022-11-20T07:32:22;13.65;;;9.98;;
76292;SDS011;65101;51.140;4.088;2022-11-20T07:34:48;13.30;;;9.40;;
76292;SDS011;65101;51.140;4.088;2022-11-20T07:37:14;13.13;;;9.75;;
76292;SDS011;65101;51.140;4.088;2022-11-20T07:39:40;12.77;;;10.35;;
76292;SDS011;65101;51.140;4.088;2022-11-20T07:42:06;12.20;;;9.60;;
76292;SDS011;65101;51.140;4.088;2022-11-20T07:44:33;12.40;;;9.45;;
76292;SDS011;65101;51.140;4.088;2022-11-20T07:46:59;11.30;;;8.95;;
76292;SDS011;65101;51.140;4.088;2022-11-20T07:49:25;14.32;;;9.50;;
76292;SDS011;65101;51.140;4.088;2022-11-20T07:51:51;11.57;;;8.80;;
76292;SDS011;65101;51.140;4.088;2022-11-20T07:54:18;12.73;;;9.18;;
76292;SDS011;65101;51.140;4.088;2022-11-20T07:56:45;14.20;;;9.93;;
76292;SDS011;65101;51.140;4.088;2022-11-20T07:59:11;14.25;;;10.27;;
76292;SDS011;65101;51.140;4.088;2022-11-20T08:01:37;13.13;;;9.80;;
76292;SDS011;65101;51.140;4.088;2022-11-20T08:04:06;11.75;;;8.45;;
76292;SDS011;65101;51.140;4.088;2022-11-20T08:06:32;12.57;;;9.35;;
76292;SDS011;65101;51.140;4.088;2022-11-20T08:08:58;11.93;;;8.90;;
76292;SDS011;65101;51.140;4.088;2022-11-20T08:11:23;11.18;;;8.98;;
76292;SDS011;65101;51.140;4.088;2022-11-20T08:14:08;12.52;;;9.30;;
76292;SDS011;65101;51.140;4.088;2022-11-20T08:16:44;12.80;;;9.02;;
76292;SDS011;65101;51.140;4.088;2022-11-20T08:19:12;11.52;;;8.70;;
76292;SDS011;65101;51.140;4.088;2022-11-20T08:21:38;12.63;;;8.93;;
76292;SDS011;65101;51.140;4.088;2022-11-20T08:24:05;11.52;;;8.85;;
76292;SDS011;65101;51.140;4.088;2022-11-20T08:26:31;12.77;;;9.73;;
76292;SDS011;65101;51.140;4.088;2022-11-20T08:28:57;12.13;;;8.75;;
76292;SDS011;65101;51.140;4.088;2022-11-20T08:31:24;11.23;;;8.80;;
76292;SDS011;65101;51.140;4.088;2022-11-20T08:33:51;12.90;;;10.00;;
76292;SDS011;65101;51.140;4.088;2022-11-20T08:36:18;12.65;;;9.18;;
76292;SDS011;65101;51.140;4.088;2022-11-20T08:38:47;10.52;;;8.68;;
76292;SDS011;65101;51.140;4.088;2022-11-20T08:41:20;13.25;;;9.75;;
76292;SDS011;65101;51.140;4.088;2022-11-20T08:43:51;11.93;;;9.02;;
76292;SDS011;65101;51.140;4.088;2022-11-20T08:46:32;11.20;;;7.53;;
76292;SDS011;65101;51.140;4.088;2022-11-20T08:49:00;13.73;;;8.68;;
76292;SDS011;65101;51.140;4.088;2022-11-20T08:51:26;13.02;;;9.30;;
76292;SDS011;65101;51.140;4.088;2022-11-20T08:53:51;9.57;;;7.65;;
76292;SDS011;65101;51.140;4.088;2022-11-20T08:56:17;13.88;;;10.18;;
76292;SDS011;65101;51.140;4.088;2022-11-20T08:58:43;11.25;;;8.77;;
76292;SDS011;65101;51.140;4.088;2022-11-20T09:01:09;11.68;;;8.23;;
76292;SDS011;65101;51.140;4.088;2022-11-20T09:03:35;10.80;;;7.82;;
76292;SDS011;65101;51.140;4.088;2022-11-20T09:06:01;11.93;;;8.93;;
76292;SDS011;65101;51.140;4.088;2022-11-20T09:08:29;11.43;;;9.10;;
76292;SDS011;65101;51.140;4.088;2022-11-20T09:10:55;11.20;;;8.38;;
76292;SDS011;65101;51.140;4.088;2022-11-20T09:13:22;10.95;;;8.18;;
76292;SDS011;65101;51.140;4.088;2022-11-20T09:15:56;9.68;;;7.88;;
76292;SDS011;65101;51.140;4.088;2022-11-20T09:18:24;12.20;;;8.48;;
76292;SDS011;65101;51.140;4.088;2022-11-20T09:20:51;10.05;;;7.63;;
76292;SDS011;65101;51.140;4.088;2022-11-20T09:23:16;14.23;;;8.80;;
76292;SDS011;65101;51.140;4.088;2022-11-20T09:25:43;11.07;;;8.10;;
76292;SDS011;65101;51.140;4.088;2022-11-20T09:28:08;11.85;;;8.57;;
76292;SDS011;65101;51.140;4.088;2022-11-20T09:30:34;10.93;;;8.27;;
76292;SDS011;65101;51.140;4.088;2022-11-20T09:33:00;11.27;;;8.77;;
76292;SDS011;65101;51.140;4.088;2022-11-20T09:35:26;10.88;;;7.93;;
76292;SDS011;65101;51.140;4.088;2022-11-20T09:37:51;11.38;;;8.82;;
76292;SDS011;65101;51.140;4.088;2022-11-20T09:40:21;11.18;;;8.57;;
76292;SDS011;65101;51.140;4.088;2022-11-20T09:42:54;11.13;;;8.27;;
76292;SDS011;65101;51.140;4.088;2022-11-20T09:45:44;10.05;;;7.93;;
76292;SDS011;65101;51.140;4.088;2022-11-20T09:51:28;11.18;;;7.90;;
76292;SDS011;65101;51.140;4.088;2022-11-20T09:54:22;9.85;;;8.10;;
76292;SDS011;65101;51.140;4.088;2022-11-20T09:57:02;10.27;;;7.82;;
76292;SDS011;65101;51.140;4.088;2022-11-20T10:00:02;12.30;;;8.65;;
76292;SDS011;65101;51.140;4.088;2022-11-20T10:02:47;11.68;;;8.52;;
76292;SDS011;65101;51.140;4.088;2022-11-20T10:10:44;10.55;;;8.20;;
76292;SDS011;65101;51.140;4.088;2022-11-20T10:16:55;12.38;;;8.00;;
76292;SDS011;65101;51.140;4.088;2022-11-20T10:22:00;9.57;;;6.57;;
76292;SDS011;65101;51.140;4.088;2022-11-20T10:24:52;11.13;;;8.38;;
76292;SDS011;65101;51.140;4.088;2022-11-20T10:27:43;10.75;;;8.18;;
76292;SDS011;65101;51.140;4.088;2022-11-20T10:30:18;10.57;;;7.77;;
76292;SDS011;65101;51.140;4.088;2022-11-20T10:32:58;10.00;;;7.90;;
76292;SDS011;65101;51.140;4.088;2022-11-20T10:35:39;10.32;;;7.95;;
76292;SDS011;65101;51.140;4.088;2022-11-20T10:38:13;10.20;;;6.72;;
76292;SDS011;65101;51.140;4.088;2022-11-20T10:40:51;7.70;;;6.90;;
76292;SDS011;65101;51.140;4.088;2022-11-20T10:43:45;8.68;;;7.13;;
76292;SDS011;65101;51.140;4.088;2022-11-20T10:46:17;10.05;;;7.03;;
76292;SDS011;65101;51.140;4.088;2022-11-20T10:48:47;10.10;;;7.68;;
76292;SDS011;65101;51.140;4.088;2022-11-20T10:51:31;10.68;;;7.80;;
76292;SDS011;65101;51.140;4.088;2022-11-20T10:54:20;10.65;;;7.78;;
76292;SDS011;65101;51.140;4.088;2022-11-20T10:56:49;10.68;;;7.85;;
76292;SDS011;65101;51.140;4.088;2022-11-20T11:02:16;9.02;;;6.60;;
76292;SDS011;65101;51.140;4.088;2022-11-20T11:04:47;10.63;;;7.45;;
76292;SDS011;65101;51.140;4.088;2022-11-20T11:07:35;9.93;;;7.38;;
76292;SDS011;65101;51.140;4.088;2022-11-20T11:10:12;9.93;;;7.75;;
76292;SDS011;65101;51.140;4.088;2022-11-20T11:12:43;9.30;;;6.97;;
76292;SDS011;65101;51.140;4.088;2022-11-20T11:15:24;9.07;;;7.25;;
76292;SDS011;65101;51.140;4.088;2022-11-20T11:17:52;8.88;;;6.85;;
76292;SDS011;65101;51.140;4.088;2022-11-20T11:20:19;7.90;;;6.38;;
76292;SDS011;65101;51.140;4.088;2022-11-20T11:22:54;8.05;;;6.47;;
76292;SDS011;65101;51.140;4.088;2022-11-20T11:28:03;8.07;;;6.17;;
76292;SDS011;65101;51.140;4.088;2022-11-20T11:30:45;6.57;;;5.53;;
76292;SDS011;65101;51.140;4.088;2022-11-20T11:33:17;7.88;;;6.18;;
76292;SDS011;65101;51.140;4.088;2022-11-20T11:35:45;9.07;;;6.60;;
76292;SDS011;65101;51.140;4.088;2022-11-20T11:38:14;8.88;;;6.18;;
76292;SDS011;65101;51.140;4.088;2022-11-20T11:40:44;7.32;;;5.72;;
76292;SDS011;65101;51.140;4.088;2022-11-20T11:43:19;6.55;;;5.32;;
76292;SDS011;65101;51.140;4.088;2022-11-20T11:48:59;6.35;;;5.55;;
76292;SDS011;65101;51.140;4.088;2022-11-20T11:51:38;6.15;;;5.38;;
76292;SDS011;65101;51.140;4.088;2022-11-20T11:54:37;6.45;;;4.82;;
76292;SDS011;65101;51.140;4.088;2022-11-20T11:57:26;6.63;;;5.00;;
76292;SDS011;65101;51.140;4.088;2022-11-20T12:00:14;7.25;;;5.13;;
76292;SDS011;65101;51.140;4.088;2022-11-20T12:13:54;7.03;;;5.25;;
76292;SDS011;65101;51.140;4.088;2022-11-20T12:16:26;6.43;;;4.80;;
76292;SDS011;65101;51.140;4.088;2022-11-20T12:18:53;6.25;;;5.03;;
76292;SDS011;65101;51.140;4.088;2022-11-20T12:21:20;7.53;;;5.45;;
76292;SDS011;65101;51.140;4.088;2022-11-20T12:35:00;5.72;;;4.20;;
76292;SDS011;65101;51.140;4.088;2022-11-20T12:37:45;5.72;;;4.63;;
76292;SDS011;65101;51.140;4.088;2022-11-20T12:45:56;6.88;;;4.80;;
76292;SDS011;65101;51.140;4.088;2022-11-20T12:48:49;6.38;;;4.63;;
76292;SDS011;65101;51.140;4.088;2022-11-20T12:51:43;5.78;;;4.78;;
76292;SDS011;65101;51.140;4.088;2022-11-20T13:00:08;6.93;;;4.38;;
76292;SDS011;65101;51.140;4.088;2022-11-20T13:07:59;6.35;;;4.90;;
76292;SDS011;65101;51.140;4.088;2022-11-20T13:10:35;5.93;;;4.32;;
76292;SDS011;65101;51.140;4.088;2022-11-20T13:18:50;6.10;;;4.32;;
76292;SDS011;65101;51.140;4.088;2022-11-20T13:21:35;5.85;;;4.03;;
76292;SDS011;65101;51.140;4.088;2022-11-20T13:24:25;5.45;;;4.07;;
76292;SDS011;65101;51.140;4.088;2022-11-20T13:29:34;5.53;;;4.32;;
76292;SDS011;65101;51.140;4.088;2022-11-20T13:32:04;5.43;;;4.38;;
76292;SDS011;65101;51.140;4.088;2022-11-20T13:34:38;5.75;;;4.32;;
76292;SDS011;65101;51.140;4.088;2022-11-20T13:37:03;7.07;;;3.85;;
76292;SDS011;65101;51.140;4.088;2022-11-20T13:39:30;5.80;;;4.28;;
76292;SDS011;65101;51.140;4.088;2022-11-20T13:42:01;7.75;;;4.43;;
76292;SDS011;65101;51.140;4.088;2022-11-20T13:44:37;7.28;;;3.90;;
76292;SDS011;65101;51.140;4.088;2022-11-20T13:47:24;5.28;;;4.20;;
76292;SDS011;65101;51.140;4.088;2022-11-20T13:49:55;8.45;;;3.88;;
76292;SDS011;65101;51.140;4.088;2022-11-20T13:55:21;4.35;;;3.53;;
76292;SDS011;65101;51.140;4.088;2022-11-20T14:00:27;4.90;;;3.58;;
76292;SDS011;65101;51.140;4.088;2022-11-20T14:03:07;4.40;;;3.50;;
76292;SDS011;65101;51.140;4.088;2022-11-20T14:05:38;5.70;;;3.78;;
76292;SDS011;65101;51.140;4.088;2022-11-20T14:08:16;5.03;;;3.33;;
76292;SDS011;65101;51.140;4.088;2022-11-20T14:10:48;4.88;;;3.50;;
76292;SDS011;65101;51.140;4.088;2022-11-20T14:13:20;4.68;;;3.35;;
76292;SDS011;65101;51.140;4.088;2022-11-20T14:15:46;4.18;;;3.42;;
76292;SDS011;65101;51.140;4.088;2022-11-20T14:18:14;5.13;;;3.22;;
76292;SDS011;65101;51.140;4.088;2022-11-20T14:20:44;4.95;;;3.10;;
76292;SDS011;65101;51.140;4.088;2022-11-20T14:23:10;4.35;;;3.10;;
76292;SDS011;65101;51.140;4.088;2022-11-20T14:25:36;4.78;;;3.08;;
76292;SDS011;65101;51.140;4.088;2022-11-20T14:28:10;3.70;;;2.72;;
76292;SDS011;65101;51.140;4.088;2022-11-20T14:30:45;4.72;;;2.90;;
76292;SDS011;65101;51.140;4.088;2022-11-20T14:33:12;4.32;;;2.90;;
76292;SDS011;65101;51.140;4.088;2022-11-20T14:35:49;4.50;;;3.20;;
76292;SDS011;65101;51.140;4.088;2022-11-20T14:38:18;6.70;;;3.38;;
76292;SDS011;65101;51.140;4.088;2022-11-20T14:40:47;4.15;;;2.90;;
76292;SDS011;65101;51.140;4.088;2022-11-20T14:43:30;4.13;;;2.65;;
76292;SDS011;65101;51.140;4.088;2022-11-20T14:46:05;4.93;;;3.15;;
76292;SDS011;65101;51.140;4.088;2022-11-20T14:51:30;4.30;;;2.60;;
76292;SDS011;65101;51.140;4.088;2022-11-20T14:54:14;4.05;;;2.80;;
76292;SDS011;65101;51.140;4.088;2022-11-20T14:56:41;5.28;;;2.78;;
76292;SDS011;65101;51.140;4.088;2022-11-20T14:59:22;3.72;;;2.40;;
76292;SDS011;65101;51.140;4.088;2022-11-20T15:02:03;3.72;;;2.60;;
76292;SDS011;65101;51.140;4.088;2022-11-20T15:04:31;3.28;;;2.20;;
76292;SDS011;65101;51.140;4.088;2022-11-20T15:06:58;2.88;;;2.42;;
76292;SDS011;65101;51.140;4.088;2022-11-20T15:09:24;3.28;;;2.40;;
76292;SDS011;65101;51.140;4.088;2022-11-20T15:11:52;3.10;;;2.47;;
76292;SDS011;65101;51.140;4.088;2022-11-20T15:14:23;3.35;;;2.25;;
76292;SDS011;65101;51.140;4.088;2022-11-20T15:16:51;2.87;;;2.20;;
76292;SDS011;65101;51.140;4.088;2022-11-20T15:19:21;3.83;;;2.75;;
76292;SDS011;65101;51.140;4.088;2022-11-20T15:21:48;3.83;;;2.25;;
76292;SDS011;65101;51.140;4.088;2022-11-20T15:24:14;4.72;;;2.75;;
76292;SDS011;65101;51.140;4.088;2022-11-20T15:26:40;3.45;;;2.33;;
76292;SDS011;65101;51.140;4.088;2022-11-20T15:29:11;3.78;;;2.42;;
76292;SDS011;65101;51.140;4.088;2022-11-20T15:31:38;4.38;;;2.70;;
76292;SDS011;65101;51.140;4.088;2022-11-20T15:34:15;4.28;;;2.58;;
76292;SDS011;65101;51.140;4.088;2022-11-20T15:36:42;3.30;;;2.53;;
76292;SDS011;65101;51.140;4.088;2022-11-20T15:39:08;3.75;;;2.72;;
76292;SDS011;65101;51.140;4.088;2022-11-20T15:41:35;2.97;;;2.00;;
76292;SDS011;65101;51.140;4.088;2022-11-20T15:44:01;3.67;;;2.40;;
76292;SDS011;65101;51.140;4.088;2022-11-20T15:46:29;4.22;;;2.20;;
76292;SDS011;65101;51.140;4.088;2022-11-20T15:49:03;3.42;;;2.25;;
76292;SDS011;65101;51.140;4.088;2022-11-20T15:51:33;4.13;;;2.35;;
76292;SDS011;65101;51.140;4.088;2022-11-20T15:54:00;4.07;;;2.45;;
76292;SDS011;65101;51.140;4.088;2022-11-20T15:56:28;4.32;;;2.53;;
76292;SDS011;65101;51.140;4.088;2022-11-20T15:58:54;3.00;;;1.92;;
76292;SDS011;65101;51.140;4.088;2022-11-20T16:01:22;2.97;;;1.90;;
76292;SDS011;65101;51.140;4.088;2022-11-20T16:03:48;3.83;;;2.38;;
76292;SDS011;65101;51.140;4.088;2022-11-20T16:06:14;5.07;;;2.50;;
76292;SDS011;65101;51.140;4.088;2022-11-20T16:08:41;3.15;;;2.00;;
76292;SDS011;65101;51.140;4.088;2022-11-20T16:11:07;5.65;;;2.78;;
76292;SDS011;65101;51.140;4.088;2022-11-20T16:13:38;2.60;;;1.73;;
76292;SDS011;65101;51.140;4.088;2022-11-20T16:16:23;7.10;;;2.58;;
76292;SDS011;65101;51.140;4.088;2022-11-20T16:18:53;4.25;;;2.33;;
76292;SDS011;65101;51.140;4.088;2022-11-20T16:21:18;5.53;;;2.50;;
76292;SDS011;65101;51.140;4.088;2022-11-20T16:23:44;3.78;;;2.08;;